sensor_id;sensor_type;location;lat;lon;timestamp;P1;durP1;ratioP1;P2;durP2;ratioP2
13731;SDS011;6937;56.096;12.664;2023-08-30T00:00:03;3.92;;;1.23;;
13731;SDS011;6937;56.096;12.664;2023-08-30T00:02:29;3.10;;;1.40;;
13731;SDS011;6937;56.096;12.664;2023-08-30T00:04:58;2.97;;;1.30;;
13731;SDS011;6937;56.096;12.664;2023-08-30T00:07:24;1.60;;;1.35;;
13731;SDS011;6937;56.096;12.664;2023-08-30T00:09:49;2.78;;;1.40;;
13731;SDS011;6937;56.096;12.664;2023-08-30T00:12:15;1.85;;;1.50;;
13731;SDS011;6937;56.096;12.664;2023-08-30T00:14:40;3.45;;;1.33;;
13731;SDS011;6937;56.096;12.664;2023-08-30T00:17:06;1.45;;;1.30;;
13731;SDS011;6937;56.096;12.664;2023-08-30T00:19:31;3.60;;;1.40;;
13731;SDS011;6937;56.096;12.664;2023-08-30T00:21:56;2.47;;;1.38;;
13731;SDS011;6937;56.096;12.664;2023-08-30T00:24:22;2.70;;;1.65;;
13731;SDS011;6937;56.096;12.664;2023-08-30T00:26:47;1.80;;;1.10;;
13731;SDS011;6937;56.096;12.664;2023-08-30T00:29:13;2.78;;;1.42;;
13731;SDS011;6937;56.096;12.664;2023-08-30T00:31:38;2.17;;;1.10;;
13731;SDS011;6937;56.096;12.664;2023-08-30T00:34:04;1.98;;;1.17;;
13731;SDS011;6937;56.096;12.664;2023-08-30T00:36:29;3.85;;;1.35;;
13731;SDS011;6937;56.096;12.664;2023-08-30T00:38:55;3.55;;;1.20;;
13731;SDS011;6937;56.096;12.664;2023-08-30T00:41:20;2.38;;;1.30;;
13731;SDS011;6937;56.096;12.664;2023-08-30T00:43:46;2.75;;;1.55;;
13731;SDS011;6937;56.096;12.664;2023-08-30T00:46:11;2.83;;;1.20;;
13731;SDS011;6937;56.096;12.664;2023-08-30T00:48:38;2.30;;;1.38;;
13731;SDS011;6937;56.096;12.664;2023-08-30T00:51:04;1.75;;;1.20;;
13731;SDS011;6937;56.096;12.664;2023-08-30T00:53:29;5.68;;;1.40;;
13731;SDS011;6937;56.096;12.664;2023-08-30T00:55:55;2.17;;;1.30;;
13731;SDS011;6937;56.096;12.664;2023-08-30T00:58:20;2.03;;;1.35;;
13731;SDS011;6937;56.096;12.664;2023-08-30T01:00:46;3.80;;;1.63;;
13731;SDS011;6937;56.096;12.664;2023-08-30T01:03:12;2.05;;;1.40;;
13731;SDS011;6937;56.096;12.664;2023-08-30T01:05:38;3.60;;;1.42;;
13731;SDS011;6937;56.096;12.664;2023-08-30T01:08:04;4.35;;;1.73;;
13731;SDS011;6937;56.096;12.664;2023-08-30T01:14:12;3.28;;;1.42;;
13731;SDS011;6937;56.096;12.664;2023-08-30T01:16:32;1.48;;;1.20;;
13731;SDS011;6937;56.096;12.664;2023-08-30T01:19:00;1.67;;;1.30;;
13731;SDS011;6937;56.096;12.664;2023-08-30T01:27:28;3.42;;;1.60;;
13731;SDS011;6937;56.096;12.664;2023-08-30T01:29:57;2.20;;;1.38;;
13731;SDS011;6937;56.096;12.664;2023-08-30T01:32:23;2.15;;;1.25;;
13731;SDS011;6937;56.096;12.664;2023-08-30T01:34:51;3.55;;;1.60;;
13731;SDS011;6937;56.096;12.664;2023-08-30T01:37:16;3.45;;;1.70;;
13731;SDS011;6937;56.096;12.664;2023-08-30T01:39:42;4.82;;;1.85;;
13731;SDS011;6937;56.096;12.664;2023-08-30T01:42:08;1.77;;;1.38;;
13731;SDS011;6937;56.096;12.664;2023-08-30T01:44:34;4.90;;;1.60;;
13731;SDS011;6937;56.096;12.664;2023-08-30T01:47:00;3.30;;;1.80;;
13731;SDS011;6937;56.096;12.664;2023-08-30T01:49:26;2.17;;;1.50;;
13731;SDS011;6937;56.096;12.664;2023-08-30T01:51:53;1.40;;;1.30;;
13731;SDS011;6937;56.096;12.664;2023-08-30T01:54:19;2.20;;;1.60;;
13731;SDS011;6937;56.096;12.664;2023-08-30T01:56:46;5.00;;;1.50;;
13731;SDS011;6937;56.096;12.664;2023-08-30T01:59:11;2.45;;;1.38;;
13731;SDS011;6937;56.096;12.664;2023-08-30T02:01:37;3.05;;;1.50;;
13731;SDS011;6937;56.096;12.664;2023-08-30T02:04:03;3.50;;;1.40;;
13731;SDS011;6937;56.096;12.664;2023-08-30T02:09:24;3.72;;;1.58;;
13731;SDS011;6937;56.096;12.664;2023-08-30T02:11:55;2.97;;;1.33;;
13731;SDS011;6937;56.096;12.664;2023-08-30T02:14:22;2.50;;;1.17;;
13731;SDS011;6937;56.096;12.664;2023-08-30T02:16:53;2.17;;;1.50;;
13731;SDS011;6937;56.096;12.664;2023-08-30T02:19:20;4.18;;;1.30;;
13731;SDS011;6937;56.096;12.664;2023-08-30T02:21:46;2.53;;;1.55;;
13731;SDS011;6937;56.096;12.664;2023-08-30T02:24:12;3.17;;;1.52;;
13731;SDS011;6937;56.096;12.664;2023-08-30T02:26:38;3.40;;;1.42;;
13731;SDS011;6937;56.096;12.664;2023-08-30T02:29:03;3.22;;;1.50;;
13731;SDS011;6937;56.096;12.664;2023-08-30T02:31:29;1.70;;;1.10;;
13731;SDS011;6937;56.096;12.664;2023-08-30T02:33:54;2.03;;;1.23;;
13731;SDS011;6937;56.096;12.664;2023-08-30T02:36:19;3.40;;;1.27;;
13731;SDS011;6937;56.096;12.664;2023-08-30T02:38:45;3.55;;;1.33;;
13731;SDS011;6937;56.096;12.664;2023-08-30T02:41:10;3.42;;;1.52;;
13731;SDS011;6937;56.096;12.664;2023-08-30T02:43:35;4.22;;;1.52;;
13731;SDS011;6937;56.096;12.664;2023-08-30T02:46:02;1.70;;;1.45;;
13731;SDS011;6937;56.096;12.664;2023-08-30T02:48:29;3.38;;;1.50;;
13731;SDS011;6937;56.096;12.664;2023-08-30T02:50:54;2.38;;;1.50;;
13731;SDS011;6937;56.096;12.664;2023-08-30T02:53:20;3.20;;;1.60;;
13731;SDS011;6937;56.096;12.664;2023-08-30T02:55:46;3.10;;;1.67;;
13731;SDS011;6937;56.096;12.664;2023-08-30T02:58:13;3.47;;;1.30;;
13731;SDS011;6937;56.096;12.664;2023-08-30T03:00:38;2.78;;;1.50;;
13731;SDS011;6937;56.096;12.664;2023-08-30T03:03:03;3.60;;;1.50;;
13731;SDS011;6937;56.096;12.664;2023-08-30T03:05:29;2.15;;;1.50;;
13731;SDS011;6937;56.096;12.664;2023-08-30T03:07:54;2.63;;;1.40;;
13731;SDS011;6937;56.096;12.664;2023-08-30T03:10:20;1.40;;;1.30;;
13731;SDS011;6937;56.096;12.664;2023-08-30T03:12:45;3.97;;;1.38;;
13731;SDS011;6937;56.096;12.664;2023-08-30T03:15:10;1.60;;;1.20;;
13731;SDS011;6937;56.096;12.664;2023-08-30T03:17:36;2.17;;;1.20;;
13731;SDS011;6937;56.096;12.664;2023-08-30T03:20:02;3.30;;;1.58;;
13731;SDS011;6937;56.096;12.664;2023-08-30T03:22:28;2.25;;;1.40;;
13731;SDS011;6937;56.096;12.664;2023-08-30T03:24:55;3.65;;;1.60;;
13731;SDS011;6937;56.096;12.664;2023-08-30T03:27:20;2.45;;;1.48;;
13731;SDS011;6937;56.096;12.664;2023-08-30T03:29:46;1.65;;;1.25;;
13731;SDS011;6937;56.096;12.664;2023-08-30T03:32:14;2.00;;;1.58;;
13731;SDS011;6937;56.096;12.664;2023-08-30T03:34:43;3.10;;;1.30;;
13731;SDS011;6937;56.096;12.664;2023-08-30T03:37:09;2.33;;;1.40;;
13731;SDS011;6937;56.096;12.664;2023-08-30T03:39:35;1.27;;;1.10;;
13731;SDS011;6937;56.096;12.664;2023-08-30T03:42:00;1.30;;;1.20;;
13731;SDS011;6937;56.096;12.664;2023-08-30T03:44:25;3.30;;;1.60;;
13731;SDS011;6937;56.096;12.664;2023-08-30T03:46:51;2.28;;;1.40;;
13731;SDS011;6937;56.096;12.664;2023-08-30T03:49:16;1.67;;;1.30;;
13731;SDS011;6937;56.096;12.664;2023-08-30T03:51:41;2.38;;;1.20;;
13731;SDS011;6937;56.096;12.664;2023-08-30T03:54:06;3.65;;;1.70;;
13731;SDS011;6937;56.096;12.664;2023-08-30T03:56:33;2.78;;;1.77;;
13731;SDS011;6937;56.096;12.664;2023-08-30T03:58:58;2.35;;;1.33;;
13731;SDS011;6937;56.096;12.664;2023-08-30T04:01:24;3.80;;;1.27;;
13731;SDS011;6937;56.096;12.664;2023-08-30T04:03:49;1.80;;;1.25;;
13731;SDS011;6937;56.096;12.664;2023-08-30T04:06:14;2.35;;;1.60;;
13731;SDS011;6937;56.096;12.664;2023-08-30T04:08:40;2.60;;;1.88;;
13731;SDS011;6937;56.096;12.664;2023-08-30T04:11:05;2.33;;;1.50;;
13731;SDS011;6937;56.096;12.664;2023-08-30T04:13:30;2.55;;;1.52;;
13731;SDS011;6937;56.096;12.664;2023-08-30T04:15:56;1.52;;;1.33;;
13731;SDS011;6937;56.096;12.664;2023-08-30T04:18:23;2.55;;;1.30;;
13731;SDS011;6937;56.096;12.664;2023-08-30T04:20:49;3.47;;;1.65;;
13731;SDS011;6937;56.096;12.664;2023-08-30T04:23:14;1.65;;;1.15;;
13731;SDS011;6937;56.096;12.664;2023-08-30T04:25:40;4.13;;;1.67;;
13731;SDS011;6937;56.096;12.664;2023-08-30T04:28:05;1.75;;;1.45;;
13731;SDS011;6937;56.096;12.664;2023-08-30T04:30:31;1.50;;;1.40;;
13731;SDS011;6937;56.096;12.664;2023-08-30T04:32:56;1.85;;;1.30;;
13731;SDS011;6937;56.096;12.664;2023-08-30T04:35:23;1.73;;;1.60;;
13731;SDS011;6937;56.096;12.664;2023-08-30T04:37:48;3.78;;;1.75;;
13731;SDS011;6937;56.096;12.664;2023-08-30T04:40:13;2.85;;;1.95;;
13731;SDS011;6937;56.096;12.664;2023-08-30T04:42:39;2.20;;;2.00;;
13731;SDS011;6937;56.096;12.664;2023-08-30T04:45:05;2.95;;;2.10;;
13731;SDS011;6937;56.096;12.664;2023-08-30T04:47:31;2.83;;;2.00;;
13731;SDS011;6937;56.096;12.664;2023-08-30T04:49:57;2.50;;;1.70;;
13731;SDS011;6937;56.096;12.664;2023-08-30T04:52:23;1.70;;;1.60;;
13731;SDS011;6937;56.096;12.664;2023-08-30T04:54:49;1.83;;;1.65;;
13731;SDS011;6937;56.096;12.664;2023-08-30T04:57:17;2.03;;;1.40;;
13731;SDS011;6937;56.096;12.664;2023-08-30T04:59:43;1.30;;;1.20;;
13731;SDS011;6937;56.096;12.664;2023-08-30T05:02:09;1.55;;;1.33;;
13731;SDS011;6937;56.096;12.664;2023-08-30T05:04:35;1.63;;;1.40;;
13731;SDS011;6937;56.096;12.664;2023-08-30T05:07:01;2.10;;;1.35;;
13731;SDS011;6937;56.096;12.664;2023-08-30T05:09:27;1.77;;;1.30;;
13731;SDS011;6937;56.096;12.664;2023-08-30T05:11:55;1.95;;;1.35;;
13731;SDS011;6937;56.096;12.664;2023-08-30T05:14:20;1.65;;;1.38;;
13731;SDS011;6937;56.096;12.664;2023-08-30T05:16:46;2.13;;;1.30;;
13731;SDS011;6937;56.096;12.664;2023-08-30T05:19:11;3.80;;;1.70;;
13731;SDS011;6937;56.096;12.664;2023-08-30T05:21:36;1.92;;;1.70;;
13731;SDS011;6937;56.096;12.664;2023-08-30T05:24:02;3.13;;;1.58;;
13731;SDS011;6937;56.096;12.664;2023-08-30T05:26:28;2.25;;;1.55;;
13731;SDS011;6937;56.096;12.664;2023-08-30T05:28:53;2.28;;;1.48;;
13731;SDS011;6937;56.096;12.664;2023-08-30T05:31:18;2.88;;;1.25;;
13731;SDS011;6937;56.096;12.664;2023-08-30T05:33:44;1.90;;;1.75;;
13731;SDS011;6937;56.096;12.664;2023-08-30T05:36:09;1.88;;;1.38;;
13731;SDS011;6937;56.096;12.664;2023-08-30T05:38:34;1.67;;;1.20;;
13731;SDS011;6937;56.096;12.664;2023-08-30T05:41:00;1.58;;;1.10;;
13731;SDS011;6937;56.096;12.664;2023-08-30T05:43:25;1.65;;;1.40;;
13731;SDS011;6937;56.096;12.664;2023-08-30T05:45:50;3.05;;;1.50;;
13731;SDS011;6937;56.096;12.664;2023-08-30T05:48:16;2.63;;;1.63;;
13731;SDS011;6937;56.096;12.664;2023-08-30T05:50:41;2.05;;;1.50;;
13731;SDS011;6937;56.096;12.664;2023-08-30T05:53:07;2.28;;;1.80;;
13731;SDS011;6937;56.096;12.664;2023-08-30T05:55:32;1.88;;;1.58;;
13731;SDS011;6937;56.096;12.664;2023-08-30T05:57:57;2.08;;;1.88;;
13731;SDS011;6937;56.096;12.664;2023-08-30T06:00:23;2.40;;;1.95;;
13731;SDS011;6937;56.096;12.664;2023-08-30T06:02:50;1.90;;;1.60;;
13731;SDS011;6937;56.096;12.664;2023-08-30T06:05:16;1.63;;;1.40;;
13731;SDS011;6937;56.096;12.664;2023-08-30T06:07:42;2.45;;;1.73;;
13731;SDS011;6937;56.096;12.664;2023-08-30T06:10:07;2.10;;;1.85;;
13731;SDS011;6937;56.096;12.664;2023-08-30T06:12:32;3.00;;;1.50;;
13731;SDS011;6937;56.096;12.664;2023-08-30T06:14:58;2.17;;;1.80;;
13731;SDS011;6937;56.096;12.664;2023-08-30T06:17:23;3.75;;;2.00;;
13731;SDS011;6937;56.096;12.664;2023-08-30T06:19:48;4.40;;;2.50;;
13731;SDS011;6937;56.096;12.664;2023-08-30T06:22:14;2.28;;;2.00;;
13731;SDS011;6937;56.096;12.664;2023-08-30T06:24:39;3.13;;;2.72;;
13731;SDS011;6937;56.096;12.664;2023-08-30T06:27:05;3.33;;;2.78;;
13731;SDS011;6937;56.096;12.664;2023-08-30T06:29:30;5.10;;;3.10;;
13731;SDS011;6937;56.096;12.664;2023-08-30T06:31:56;3.67;;;3.25;;
13731;SDS011;6937;56.096;12.664;2023-08-30T06:34:22;4.97;;;2.97;;
13731;SDS011;6937;56.096;12.664;2023-08-30T06:36:48;4.00;;;2.50;;
13731;SDS011;6937;56.096;12.664;2023-08-30T06:39:13;5.10;;;2.72;;
13731;SDS011;6937;56.096;12.664;2023-08-30T06:41:39;4.35;;;2.58;;
13731;SDS011;6937;56.096;12.664;2023-08-30T06:44:04;3.25;;;2.45;;
13731;SDS011;6937;56.096;12.664;2023-08-30T06:46:30;3.22;;;2.30;;
13731;SDS011;6937;56.096;12.664;2023-08-30T06:48:55;2.80;;;2.38;;
13731;SDS011;6937;56.096;12.664;2023-08-30T06:51:20;3.65;;;2.20;;
13731;SDS011;6937;56.096;12.664;2023-08-30T06:53:46;2.33;;;2.13;;
13731;SDS011;6937;56.096;12.664;2023-08-30T06:56:12;2.83;;;2.10;;
13731;SDS011;6937;56.096;12.664;2023-08-30T06:58:37;3.10;;;2.00;;
13731;SDS011;6937;56.096;12.664;2023-08-30T07:01:02;3.25;;;2.13;;
13731;SDS011;6937;56.096;12.664;2023-08-30T07:03:28;3.03;;;1.83;;
13731;SDS011;6937;56.096;12.664;2023-08-30T07:05:54;2.80;;;1.98;;
13731;SDS011;6937;56.096;12.664;2023-08-30T07:08:19;2.65;;;1.70;;
13731;SDS011;6937;56.096;12.664;2023-08-30T07:10:45;3.72;;;2.05;;
13731;SDS011;6937;56.096;12.664;2023-08-30T07:13:10;2.42;;;2.13;;
13731;SDS011;6937;56.096;12.664;2023-08-30T07:15:37;2.08;;;1.88;;
13731;SDS011;6937;56.096;12.664;2023-08-30T07:18:06;3.58;;;2.25;;
13731;SDS011;6937;56.096;12.664;2023-08-30T07:20:32;2.10;;;1.90;;
13731;SDS011;6937;56.096;12.664;2023-08-30T07:22:59;2.40;;;2.20;;
13731;SDS011;6937;56.096;12.664;2023-08-30T07:25:25;2.60;;;2.22;;
13731;SDS011;6937;56.096;12.664;2023-08-30T07:27:51;2.90;;;2.10;;
13731;SDS011;6937;56.096;12.664;2023-08-30T07:30:16;2.38;;;2.13;;
13731;SDS011;6937;56.096;12.664;2023-08-30T07:32:42;1.90;;;1.80;;
13731;SDS011;6937;56.096;12.664;2023-08-30T07:35:07;1.70;;;1.60;;
13731;SDS011;6937;56.096;12.664;2023-08-30T07:37:33;2.95;;;1.67;;
13731;SDS011;6937;56.096;12.664;2023-08-30T07:40:00;2.35;;;1.80;;
13731;SDS011;6937;56.096;12.664;2023-08-30T07:42:26;3.78;;;1.75;;
13731;SDS011;6937;56.096;12.664;2023-08-30T07:44:51;1.70;;;1.60;;
13731;SDS011;6937;56.096;12.664;2023-08-30T07:47:17;1.80;;;1.02;;
13731;SDS011;6937;56.096;12.664;2023-08-30T07:49:42;1.73;;;0.90;;
13731;SDS011;6937;56.096;12.664;2023-08-30T07:52:08;1.33;;;0.70;;
13731;SDS011;6937;56.096;12.664;2023-08-30T07:54:36;0.90;;;0.90;;
13731;SDS011;6937;56.096;12.664;2023-08-30T07:57:02;2.08;;;1.10;;
13731;SDS011;6937;56.096;12.664;2023-08-30T07:59:28;1.98;;;1.27;;
13731;SDS011;6937;56.096;12.664;2023-08-30T08:01:54;1.77;;;1.60;;
13731;SDS011;6937;56.096;12.664;2023-08-30T08:04:20;1.73;;;1.23;;
13731;SDS011;6937;56.096;12.664;2023-08-30T08:06:45;1.77;;;1.23;;
13731;SDS011;6937;56.096;12.664;2023-08-30T08:09:11;1.27;;;1.17;;
13731;SDS011;6937;56.096;12.664;2023-08-30T08:11:36;2.20;;;1.20;;
13731;SDS011;6937;56.096;12.664;2023-08-30T08:14:02;1.15;;;0.88;;
13731;SDS011;6937;56.096;12.664;2023-08-30T08:16:28;1.33;;;0.88;;
13731;SDS011;6937;56.096;12.664;2023-08-30T08:18:54;2.20;;;0.85;;
13731;SDS011;6937;56.096;12.664;2023-08-30T08:21:19;3.85;;;1.05;;
13731;SDS011;6937;56.096;12.664;2023-08-30T08:23:44;1.83;;;0.93;;
13731;SDS011;6937;56.096;12.664;2023-08-30T08:26:14;0.85;;;0.80;;
13731;SDS011;6937;56.096;12.664;2023-08-30T08:28:39;1.70;;;0.77;;
13731;SDS011;6937;56.096;12.664;2023-08-30T08:31:05;1.70;;;0.80;;
13731;SDS011;6937;56.096;12.664;2023-08-30T08:33:31;0.70;;;0.60;;
13731;SDS011;6937;56.096;12.664;2023-08-30T08:35:57;0.50;;;0.50;;
13731;SDS011;6937;56.096;12.664;2023-08-30T08:38:22;1.75;;;0.70;;
13731;SDS011;6937;56.096;12.664;2023-08-30T08:40:47;0.98;;;0.60;;
13731;SDS011;6937;56.096;12.664;2023-08-30T08:43:15;0.70;;;0.70;;
13731;SDS011;6937;56.096;12.664;2023-08-30T08:45:43;2.28;;;0.85;;
13731;SDS011;6937;56.096;12.664;2023-08-30T08:48:10;0.85;;;0.73;;
13731;SDS011;6937;56.096;12.664;2023-08-30T08:50:37;1.25;;;0.80;;
13731;SDS011;6937;56.096;12.664;2023-08-30T08:53:03;1.33;;;0.88;;
13731;SDS011;6937;56.096;12.664;2023-08-30T08:55:29;0.60;;;0.60;;
13731;SDS011;6937;56.096;12.664;2023-08-30T08:57:56;1.98;;;0.50;;
13731;SDS011;6937;56.096;12.664;2023-08-30T09:00:22;1.10;;;0.70;;
13731;SDS011;6937;56.096;12.664;2023-08-30T09:02:48;0.65;;;0.50;;
13731;SDS011;6937;56.096;12.664;2023-08-30T09:05:17;0.93;;;0.60;;
13731;SDS011;6937;56.096;12.664;2023-08-30T09:07:44;1.25;;;0.60;;
13731;SDS011;6937;56.096;12.664;2023-08-30T09:10:10;0.55;;;0.55;;
13731;SDS011;6937;56.096;12.664;2023-08-30T09:12:35;1.10;;;0.60;;
13731;SDS011;6937;56.096;12.664;2023-08-30T09:15:01;1.33;;;0.60;;
13731;SDS011;6937;56.096;12.664;2023-08-30T09:17:44;0.68;;;0.50;;
13731;SDS011;6937;56.096;12.664;2023-08-30T09:20:12;0.50;;;0.43;;
13731;SDS011;6937;56.096;12.664;2023-08-30T09:22:41;0.68;;;0.68;;
13731;SDS011;6937;56.096;12.664;2023-08-30T09:25:08;0.88;;;0.50;;
13731;SDS011;6937;56.096;12.664;2023-08-30T09:27:35;0.73;;;0.63;;
13731;SDS011;6937;56.096;12.664;2023-08-30T09:30:01;1.25;;;0.90;;
13731;SDS011;6937;56.096;12.664;2023-08-30T09:32:29;0.70;;;0.50;;
13731;SDS011;6937;56.096;12.664;2023-08-30T09:34:54;0.47;;;0.40;;
13731;SDS011;6937;56.096;12.664;2023-08-30T09:37:23;0.47;;;0.40;;
13731;SDS011;6937;56.096;12.664;2023-08-30T09:39:49;1.42;;;0.70;;
13731;SDS011;6937;56.096;12.664;2023-08-30T09:42:17;0.98;;;0.50;;
13731;SDS011;6937;56.096;12.664;2023-08-30T09:44:43;1.02;;;0.55;;
13731;SDS011;6937;56.096;12.664;2023-08-30T09:47:09;0.52;;;0.43;;
13731;SDS011;6937;56.096;12.664;2023-08-30T09:49:40;1.55;;;0.50;;
13731;SDS011;6937;56.096;12.664;2023-08-30T09:52:08;0.75;;;0.65;;
13731;SDS011;6937;56.096;12.664;2023-08-30T09:54:35;0.50;;;0.50;;
13731;SDS011;6937;56.096;12.664;2023-08-30T09:57:03;1.20;;;0.50;;
13731;SDS011;6937;56.096;12.664;2023-08-30T09:59:29;1.05;;;0.70;;
13731;SDS011;6937;56.096;12.664;2023-08-30T10:01:56;0.88;;;0.47;;
13731;SDS011;6937;56.096;12.664;2023-08-30T10:04:22;1.27;;;0.50;;
13731;SDS011;6937;56.096;12.664;2023-08-30T10:06:48;0.75;;;0.60;;
13731;SDS011;6937;56.096;12.664;2023-08-30T10:09:16;1.50;;;0.60;;
13731;SDS011;6937;56.096;12.664;2023-08-30T10:11:44;3.38;;;0.55;;
13731;SDS011;6937;56.096;12.664;2023-08-30T10:14:10;0.82;;;0.60;;
13731;SDS011;6937;56.096;12.664;2023-08-30T10:16:40;1.73;;;0.60;;
13731;SDS011;6937;56.096;12.664;2023-08-30T10:19:13;1.40;;;0.50;;
13731;SDS011;6937;56.096;12.664;2023-08-30T10:21:47;0.95;;;0.55;;
13731;SDS011;6937;56.096;12.664;2023-08-30T10:24:19;0.75;;;0.50;;
13731;SDS011;6937;56.096;12.664;2023-08-30T10:26:47;0.68;;;0.60;;
13731;SDS011;6937;56.096;12.664;2023-08-30T10:29:14;0.65;;;0.50;;
13731;SDS011;6937;56.096;12.664;2023-08-30T10:31:41;1.00;;;0.50;;
13731;SDS011;6937;56.096;12.664;2023-08-30T10:34:13;0.50;;;0.50;;
13731;SDS011;6937;56.096;12.664;2023-08-30T10:36:41;0.50;;;0.50;;
13731;SDS011;6937;56.096;12.664;2023-08-30T10:39:11;1.23;;;0.52;;
13731;SDS011;6937;56.096;12.664;2023-08-30T10:41:37;0.65;;;0.50;;
13731;SDS011;6937;56.096;12.664;2023-08-30T10:44:03;0.40;;;0.40;;
13731;SDS011;6937;56.096;12.664;2023-08-30T10:46:29;0.47;;;0.47;;
13731;SDS011;6937;56.096;12.664;2023-08-30T10:48:56;0.75;;;0.50;;
13731;SDS011;6937;56.096;12.664;2023-08-30T10:51:43;0.70;;;0.50;;
13731;SDS011;6937;56.096;12.664;2023-08-30T10:54:13;0.57;;;0.50;;
13731;SDS011;6937;56.096;12.664;2023-08-30T10:56:55;0.82;;;0.57;;
13731;SDS011;6937;56.096;12.664;2023-08-30T10:59:24;0.77;;;0.77;;
13731;SDS011;6937;56.096;12.664;2023-08-30T11:01:50;1.10;;;0.57;;
13731;SDS011;6937;56.096;12.664;2023-08-30T11:04:21;1.02;;;0.63;;
13731;SDS011;6937;56.096;12.664;2023-08-30T11:06:50;0.60;;;0.50;;
13731;SDS011;6937;56.096;12.664;2023-08-30T11:09:17;0.80;;;0.60;;
13731;SDS011;6937;56.096;12.664;2023-08-30T11:11:47;0.95;;;0.50;;
13731;SDS011;6937;56.096;12.664;2023-08-30T11:14:14;0.73;;;0.55;;
13731;SDS011;6937;56.096;12.664;2023-08-30T11:16:40;0.50;;;0.50;;
13731;SDS011;6937;56.096;12.664;2023-08-30T11:19:06;0.95;;;0.40;;
13731;SDS011;6937;56.096;12.664;2023-08-30T11:21:36;0.63;;;0.40;;
13731;SDS011;6937;56.096;12.664;2023-08-30T11:24:04;1.15;;;0.60;;
13731;SDS011;6937;56.096;12.664;2023-08-30T11:26:30;1.30;;;0.98;;
13731;SDS011;6937;56.096;12.664;2023-08-30T11:29:05;0.60;;;0.60;;
13731;SDS011;6937;56.096;12.664;2023-08-30T11:31:33;0.82;;;0.45;;
13731;SDS011;6937;56.096;12.664;2023-08-30T11:34:00;0.80;;;0.50;;
13731;SDS011;6937;56.096;12.664;2023-08-30T11:36:27;0.52;;;0.45;;
13731;SDS011;6937;56.096;12.664;2023-08-30T11:38:54;0.32;;;0.32;;
13731;SDS011;6937;56.096;12.664;2023-08-30T11:41:20;3.08;;;0.65;;
13731;SDS011;6937;56.096;12.664;2023-08-30T11:43:50;1.00;;;0.63;;
13731;SDS011;6937;56.096;12.664;2023-08-30T11:46:19;1.65;;;0.68;;
13731;SDS011;6937;56.096;12.664;2023-08-30T11:48:45;0.52;;;0.50;;
13731;SDS011;6937;56.096;12.664;2023-08-30T11:51:12;1.30;;;0.68;;
13731;SDS011;6937;56.096;12.664;2023-08-30T11:53:38;0.82;;;0.52;;
13731;SDS011;6937;56.096;12.664;2023-08-30T11:56:05;2.05;;;0.50;;
13731;SDS011;6937;56.096;12.664;2023-08-30T11:58:34;1.08;;;0.70;;
13731;SDS011;6937;56.096;12.664;2023-08-30T12:01:03;0.52;;;0.52;;
13731;SDS011;6937;56.096;12.664;2023-08-30T12:03:30;0.68;;;0.60;;
13731;SDS011;6937;56.096;12.664;2023-08-30T12:05:56;1.40;;;0.50;;
13731;SDS011;6937;56.096;12.664;2023-08-30T12:08:26;0.77;;;0.60;;
13731;SDS011;6937;56.096;12.664;2023-08-30T12:10:54;1.02;;;0.60;;
13731;SDS011;6937;56.096;12.664;2023-08-30T12:13:25;0.85;;;0.45;;
13731;SDS011;6937;56.096;12.664;2023-08-30T12:15:52;2.10;;;0.70;;
13731;SDS011;6937;56.096;12.664;2023-08-30T12:18:24;1.48;;;0.90;;
13731;SDS011;6937;56.096;12.664;2023-08-30T12:20:57;1.08;;;0.85;;
13731;SDS011;6937;56.096;12.664;2023-08-30T12:23:24;1.38;;;0.85;;
13731;SDS011;6937;56.096;12.664;2023-08-30T12:26:00;1.20;;;0.70;;
13731;SDS011;6937;56.096;12.664;2023-08-30T12:28:31;0.65;;;0.65;;
13731;SDS011;6937;56.096;12.664;2023-08-30T12:30:58;1.88;;;0.75;;
13731;SDS011;6937;56.096;12.664;2023-08-30T12:33:23;0.88;;;0.57;;
13731;SDS011;6937;56.096;12.664;2023-08-30T12:35:55;1.58;;;0.60;;
13731;SDS011;6937;56.096;12.664;2023-08-30T12:38:21;1.30;;;0.60;;
13731;SDS011;6937;56.096;12.664;2023-08-30T12:40:48;0.85;;;0.50;;
13731;SDS011;6937;56.096;12.664;2023-08-30T12:43:18;1.25;;;0.70;;
13731;SDS011;6937;56.096;12.664;2023-08-30T12:45:47;0.73;;;0.60;;
13731;SDS011;6937;56.096;12.664;2023-08-30T12:48:14;0.68;;;0.47;;
13731;SDS011;6937;56.096;12.664;2023-08-30T12:50:40;0.63;;;0.55;;
13731;SDS011;6937;56.096;12.664;2023-08-30T12:53:06;2.13;;;0.65;;
13731;SDS011;6937;56.096;12.664;2023-08-30T12:55:32;0.40;;;0.40;;
13731;SDS011;6937;56.096;12.664;2023-08-30T12:58:02;0.60;;;0.60;;
13731;SDS011;6937;56.096;12.664;2023-08-30T13:00:28;0.75;;;0.60;;
13731;SDS011;6937;56.096;12.664;2023-08-30T13:02:53;1.65;;;0.50;;
13731;SDS011;6937;56.096;12.664;2023-08-30T13:05:19;0.60;;;0.57;;
13731;SDS011;6937;56.096;12.664;2023-08-30T13:07:44;0.82;;;0.52;;
13731;SDS011;6937;56.096;12.664;2023-08-30T13:10:10;0.82;;;0.50;;
13731;SDS011;6937;56.096;12.664;2023-08-30T13:12:36;0.95;;;0.68;;
13731;SDS011;6937;56.096;12.664;2023-08-30T13:15:02;2.08;;;0.57;;
13731;SDS011;6937;56.096;12.664;2023-08-30T13:17:31;0.43;;;0.40;;
13731;SDS011;6937;56.096;12.664;2023-08-30T13:19:56;0.68;;;0.52;;
13731;SDS011;6937;56.096;12.664;2023-08-30T13:22:23;0.60;;;0.60;;
13731;SDS011;6937;56.096;12.664;2023-08-30T13:24:49;1.27;;;0.68;;
13731;SDS011;6937;56.096;12.664;2023-08-30T13:27:14;1.85;;;0.70;;
13731;SDS011;6937;56.096;12.664;2023-08-30T13:29:39;1.85;;;0.90;;
13731;SDS011;6937;56.096;12.664;2023-08-30T13:32:05;0.82;;;0.68;;
13731;SDS011;6937;56.096;12.664;2023-08-30T13:34:30;0.93;;;0.77;;
13731;SDS011;6937;56.096;12.664;2023-08-30T13:36:56;0.85;;;0.77;;
13731;SDS011;6937;56.096;12.664;2023-08-30T13:39:21;1.20;;;0.70;;
13731;SDS011;6937;56.096;12.664;2023-08-30T13:41:47;0.85;;;0.50;;
13731;SDS011;6937;56.096;12.664;2023-08-30T13:44:13;0.85;;;0.57;;
13731;SDS011;6937;56.096;12.664;2023-08-30T13:46:39;0.80;;;0.77;;
13731;SDS011;6937;56.096;12.664;2023-08-30T13:49:04;0.82;;;0.70;;
13731;SDS011;6937;56.096;12.664;2023-08-30T13:51:30;1.10;;;0.65;;
13731;SDS011;6937;56.096;12.664;2023-08-30T13:53:55;0.85;;;0.70;;
13731;SDS011;6937;56.096;12.664;2023-08-30T13:56:21;1.75;;;0.70;;
13731;SDS011;6937;56.096;12.664;2023-08-30T13:58:47;0.82;;;0.82;;
13731;SDS011;6937;56.096;12.664;2023-08-30T14:01:12;0.95;;;0.52;;
13731;SDS011;6937;56.096;12.664;2023-08-30T14:03:38;1.13;;;0.60;;
13731;SDS011;6937;56.096;12.664;2023-08-30T14:06:03;1.08;;;0.70;;
13731;SDS011;6937;56.096;12.664;2023-08-30T14:08:30;0.95;;;0.52;;
13731;SDS011;6937;56.096;12.664;2023-08-30T14:10:56;1.75;;;0.47;;
13731;SDS011;6937;56.096;12.664;2023-08-30T14:13:22;0.95;;;0.60;;
13731;SDS011;6937;56.096;12.664;2023-08-30T14:15:48;0.60;;;0.60;;
13731;SDS011;6937;56.096;12.664;2023-08-30T14:18:13;1.15;;;0.93;;
13731;SDS011;6937;56.096;12.664;2023-08-30T14:20:42;2.08;;;0.68;;
13731;SDS011;6937;56.096;12.664;2023-08-30T14:23:08;1.30;;;0.80;;
13731;SDS011;6937;56.096;12.664;2023-08-30T14:25:34;1.85;;;0.90;;
13731;SDS011;6937;56.096;12.664;2023-08-30T14:28:00;1.75;;;0.70;;
13731;SDS011;6937;56.096;12.664;2023-08-30T14:30:26;0.73;;;0.60;;
13731;SDS011;6937;56.096;12.664;2023-08-30T14:32:51;0.90;;;0.80;;
13731;SDS011;6937;56.096;12.664;2023-08-30T14:35:16;1.08;;;0.70;;
13731;SDS011;6937;56.096;12.664;2023-08-30T14:37:42;2.08;;;0.60;;
13731;SDS011;6937;56.096;12.664;2023-08-30T14:40:07;0.80;;;0.80;;
13731;SDS011;6937;56.096;12.664;2023-08-30T14:42:33;1.33;;;0.70;;
13731;SDS011;6937;56.096;12.664;2023-08-30T14:44:59;0.65;;;0.52;;
13731;SDS011;6937;56.096;12.664;2023-08-30T14:47:24;1.45;;;0.70;;
13731;SDS011;6937;56.096;12.664;2023-08-30T14:49:49;0.57;;;0.57;;
13731;SDS011;6937;56.096;12.664;2023-08-30T14:52:15;0.68;;;0.50;;
13731;SDS011;6937;56.096;12.664;2023-08-30T14:54:41;1.27;;;0.70;;